Time;durP1;ratioP1;P1;durP2;ratioP2;P2;SDS_P1;SDS_P2;PMS_P1;PMS_P2;Temp;Humidity;BMP_temperature;BMP_pressure;BME280_temperature;BME280_humidity;BME280_pressure;Samples;Min_cycle;Max_cycle;Signal;HPM_P1;HPM_P2
2021/12/27 00:01:02;;;;;;;59.22;34.88;;;-2.00;99.90;;;;;;5083836;28;20053;-58
2021/12/27 00:03:28;;;;;;;65.60;33.30;;;-2.00;99.90;;;;;;5082607;28;20024;-56
2021/12/27 00:05:54;;;;;;;61.67;34.53;;;-2.10;99.90;;;;;;5089815;28;20725;-57
2021/12/27 00:08:19;;;;;;;59.78;32.88;;;-2.00;99.90;;;;;;5094868;28;20028;-57
2021/12/27 00:10:45;;;;;;;66.25;34.00;;;-2.10;99.90;;;;;;5102436;28;20032;-58
2021/12/27 00:13:11;;;;;;;57.38;32.50;;;-2.00;99.90;;;;;;5102347;28;20100;-58
2021/12/27 00:15:39;;;;;;;66.72;35.45;;;-2.00;99.90;;;;;;5093785;28;20024;-56
2021/12/27 00:18:05;;;;;;;67.38;35.05;;;-2.00;99.90;;;;;;5083321;28;20483;-57
2021/12/27 00:20:32;;;;;;;69.13;34.47;;;-2.00;99.90;;;;;;5082278;28;20089;-58
2021/12/27 00:22:58;;;;;;;64.13;33.22;;;-1.90;99.90;;;;;;5083388;28;20039;-56
2021/12/27 00:25:26;;;;;;;68.47;34.92;;;-1.90;99.90;;;;;;5082321;28;20059;-58
2021/12/27 00:27:52;;;;;;;75.15;35.53;;;-1.90;99.90;;;;;;5081924;28;20075;-58
2021/12/27 00:30:20;;;;;;;74.97;35.65;;;-1.90;99.90;;;;;;5089564;28;20050;-57
2021/12/27 00:32:46;;;;;;;68.63;36.65;;;-1.90;99.90;;;;;;5082449;28;20421;-57
2021/12/27 00:35:13;;;;;;;73.07;37.15;;;-1.90;99.90;;;;;;5081243;28;20150;-58
2021/12/27 00:37:39;;;;;;;74.88;36.58;;;-1.90;99.90;;;;;;5082017;28;20036;-57
2021/12/27 00:40:07;;;;;;;63.78;36.47;;;-1.80;99.90;;;;;;5083917;28;20076;-56
2021/12/27 00:42:33;;;;;;;65.88;36.05;;;-1.90;99.90;;;;;;5101617;28;20085;-58
2021/12/27 00:44:58;;;;;;;77.60;39.42;;;-1.90;99.90;;;;;;5103289;28;21175;-56
2021/12/27 00:47:24;;;;;;;75.97;37.90;;;-1.90;99.90;;;;;;5102890;28;20042;-57
2021/12/27 00:49:50;;;;;;;69.75;38.58;;;-1.90;99.90;;;;;;5102933;28;20397;-58
2021/12/27 00:52:16;;;;;;;75.72;38.90;;;-1.80;99.90;;;;;;5081921;28;20036;-57
2021/12/27 00:54:41;;;;;;;74.07;39.53;;;-1.90;99.90;;;;;;5098565;28;20479;-57
2021/12/27 00:57:07;;;;;;;73.60;39.15;;;-1.80;99.90;;;;;;5064424;28;20156;-57
2021/12/27 00:59:32;;;;;;;78.25;39.10;;;-1.80;99.90;;;;;;5081095;28;20062;-57
2021/12/27 01:01:58;;;;;;;75.25;37.40;;;-1.80;99.90;;;;;;5080961;28;20040;-57
2021/12/27 01:04:24;;;;;;;76.05;37.25;;;-1.80;99.90;;;;;;5081643;28;20085;-56
2021/12/27 01:06:50;;;;;;;83.38;39.72;;;-1.80;99.90;;;;;;5081393;28;20055;-57
2021/12/27 01:09:29;;;;;;;78.53;37.03;;;-1.80;99.90;;;;;;5083363;28;20367;-55
2021/12/27 01:12:12;;;;;;;78.45;39.47;;;-1.80;99.90;;;;;;5090659;28;20078;-56
2021/12/27 01:14:44;;;;;;;73.10;38.47;;;-1.80;99.90;;;;;;5090899;28;20555;-57
2021/12/27 01:17:11;;;;;;;82.63;40.50;;;-1.80;99.90;;;;;;5090343;28;20123;-57
2021/12/27 01:19:38;;;;;;;86.43;42.58;;;-1.80;99.90;;;;;;5090951;28;20425;-56
2021/12/27 01:22:03;;;;;;;91.80;43.33;;;-1.80;99.90;;;;;;5091385;28;20035;-57
2021/12/27 01:24:58;;;;;;;94.97;45.42;;;-1.80;99.90;;;;;;5091404;28;20793;-58
2021/12/27 01:27:24;;;;;;;78.93;39.15;;;-1.80;99.90;;;;;;5091777;28;20028;-57
2021/12/27 01:29:50;;;;;;;84.25;41.00;;;-1.80;99.90;;;;;;5092201;28;20035;-57
2021/12/27 01:32:15;;;;;;;76.53;40.25;;;-1.80;99.90;;;;;;5091894;28;20099;-57
2021/12/27 01:34:42;;;;;;;78.80;37.97;;;-1.80;99.90;;;;;;5092226;28;20042;-58
2021/12/27 01:37:08;;;;;;;93.18;43.78;;;-1.80;99.90;;;;;;5091141;28;20478;-56
2021/12/27 01:39:33;;;;;;;85.30;39.60;;;-1.80;99.90;;;;;;5073810;28;20065;-56
2021/12/27 01:41:59;;;;;;;79.18;42.05;;;-1.80;99.90;;;;;;5092111;28;20031;-56
2021/12/27 01:44:25;;;;;;;79.30;40.80;;;-1.80;99.90;;;;;;5091723;28;20117;-57
2021/12/27 01:46:52;;;;;;;78.88;41.50;;;-1.80;99.90;;;;;;5091872;28;20020;-56
2021/12/27 01:49:18;;;;;;;97.18;44.40;;;-1.90;99.90;;;;;;5091869;28;20025;-57
2021/12/27 01:51:44;;;;;;;77.28;41.50;;;-1.90;99.90;;;;;;5073376;28;20077;-57
2021/12/27 01:54:10;;;;;;;80.65;41.50;;;-1.90;99.90;;;;;;5091911;28;20119;-58
2021/12/27 01:56:36;;;;;;;81.70;42.38;;;-1.80;99.90;;;;;;5091332;28;20202;-57
2021/12/27 01:59:02;;;;;;;82.07;42.10;;;-1.90;99.90;;;;;;5091432;28;20032;-58
2021/12/27 02:01:28;;;;;;;84.25;45.47;;;-1.80;99.90;;;;;;5073452;28;20528;-57
2021/12/27 02:03:55;;;;;;;83.97;44.97;;;-1.80;99.90;;;;;;5091746;28;20028;-57
2021/12/27 02:06:21;;;;;;;74.47;41.95;;;-1.80;99.90;;;;;;5091648;28;20016;-55
2021/12/27 02:08:47;;;;;;;90.47;42.30;;;-1.90;99.90;;;;;;5091571;28;20471;-56
2021/12/27 02:11:15;;;;;;;93.90;44.78;;;-1.90;99.90;;;;;;5091528;28;20028;-57
2021/12/27 02:13:43;;;;;;;91.07;42.75;;;-1.90;99.90;;;;;;5091773;28;20043;-56
2021/12/27 02:16:20;;;;;;;88.60;41.70;;;-1.80;99.90;;;;;;5091578;28;20420;-56
2021/12/27 02:18:48;;;;;;;79.85;40.10;;;-1.80;99.90;;;;;;5091324;28;20020;-58
2021/12/27 02:21:14;;;;;;;86.07;42.15;;;-1.80;99.90;;;;;;5090829;28;20036;-58
2021/12/27 02:23:41;;;;;;;81.97;40.70;;;-1.90;99.90;;;;;;5091630;28;20024;-57
2021/12/27 02:26:08;;;;;;;81.68;43.28;;;-1.90;99.90;;;;;;5091379;28;20031;-58
2021/12/27 02:28:34;;;;;;;87.90;41.60;;;-1.90;99.90;;;;;;5091028;28;20064;-58
2021/12/27 02:31:00;;;;;;;79.63;42.15;;;-2.00;99.90;;;;;;5091559;28;20024;-56
2021/12/27 02:33:25;;;;;;;86.38;41.67;;;-2.00;99.90;;;;;;5090763;28;20024;-57
2021/12/27 02:35:55;;;;;;;89.93;45.10;;;-2.00;99.90;;;;;;5090929;28;20061;-57
2021/12/27 02:38:30;;;;;;;88.97;44.92;;;-2.00;99.90;;;;;;5090720;28;20046;-55
2021/12/27 02:40:56;;;;;;;80.78;40.78;;;-2.00;99.90;;;;;;5091210;28;20028;-58
2021/12/27 02:43:24;;;;;;;88.25;42.88;;;-1.90;99.90;;;;;;5090072;28;20110;-57
2021/12/27 02:45:54;;;;;;;86.85;41.80;;;-2.00;99.90;;;;;;5090216;28;20028;-57
2021/12/27 02:48:29;;;;;;;94.35;44.63;;;-1.90;99.90;;;;;;5092946;28;20158;-57
2021/12/27 02:50:56;;;;;;;93.78;45.67;;;-2.00;99.90;;;;;;5094711;28;20386;-57
2021/12/27 02:53:24;;;;;;;86.40;43.72;;;-2.00;99.90;;;;;;5094412;28;20477;-57
2021/12/27 02:55:51;;;;;;;102.03;47.28;;;-2.00;99.90;;;;;;5094997;28;20040;-57
2021/12/27 02:58:17;;;;;;;99.30;44.10;;;-2.00;99.90;;;;;;5095163;28;20367;-57
2021/12/27 03:00:49;;;;;;;86.40;43.38;;;-1.90;99.90;;;;;;5095398;28;20028;-56
2021/12/27 03:03:15;;;;;;;98.47;45.30;;;-1.90;99.90;;;;;;5094901;28;20055;-57
2021/12/27 03:05:43;;;;;;;91.88;44.67;;;-1.90;99.90;;;;;;5076739;28;20446;-58
2021/12/27 03:08:13;;;;;;;106.60;46.38;;;-1.90;99.90;;;;;;5095078;28;20097;-58
2021/12/27 03:10:41;;;;;;;92.32;40.72;;;-1.90;99.90;;;;;;5095189;28;20093;-57
2021/12/27 03:13:07;;;;;;;90.15;46.50;;;-2.00;99.90;;;;;;5095107;28;20020;-58
2021/12/27 03:15:33;;;;;;;101.15;44.70;;;-2.00;99.90;;;;;;5094785;28;20030;-57
2021/12/27 03:17:59;;;;;;;94.70;45.53;;;-1.90;99.90;;;;;;5094474;28;20028;-55
2021/12/27 03:20:27;;;;;;;91.18;44.92;;;-1.90;99.90;;;;;;5094284;28;20032;-58
2021/12/27 03:22:53;;;;;;;97.82;46.80;;;-2.00;99.90;;;;;;5094326;28;20135;-57
2021/12/27 03:25:25;;;;;;;110.47;49.55;;;-1.90;99.90;;;;;;5093919;28;20032;-58
2021/12/27 03:27:51;;;;;;;100.60;48.08;;;-1.90;99.90;;;;;;5094315;28;20692;-57
2021/12/27 03:30:22;;;;;;;87.50;45.67;;;-1.90;99.90;;;;;;5094505;28;20020;-56
2021/12/27 03:32:48;;;;;;;109.15;47.53;;;-1.90;99.90;;;;;;5094832;28;20114;-58
2021/12/27 03:35:24;;;;;;;98.18;48.67;;;-1.90;99.90;;;;;;5094634;28;20024;-57
2021/12/27 03:37:50;;;;;;;106.13;49.75;;;-2.00;99.90;;;;;;5094559;28;20194;-57
2021/12/27 03:40:18;;;;;;;117.15;49.50;;;-1.90;99.90;;;;;;5075524;28;20035;-57
2021/12/27 03:42:49;;;;;;;101.80;48.00;;;-1.90;99.90;;;;;;5093785;28;20413;-58
2021/12/27 03:45:21;;;;;;;115.25;51.30;;;-1.90;99.90;;;;;;5094084;28;20032;-58
2021/12/27 03:47:48;;;;;;;118.72;52.42;;;-1.90;99.90;;;;;;5094418;28;20115;-57
2021/12/27 03:50:14;;;;;;;109.43;51.47;;;-1.90;99.90;;;;;;5093991;28;20103;-58
2021/12/27 03:52:40;;;;;;;116.78;48.08;;;-1.90;99.90;;;;;;5094300;28;20028;-56
2021/12/27 03:55:07;;;;;;;109.53;48.28;;;-1.90;99.90;;;;;;5094071;28;20089;-56
2021/12/27 03:57:36;;;;;;;114.30;49.88;;;-1.90;99.90;;;;;;5093880;28;20490;-57
2021/12/27 04:00:31;;;;;;;107.93;52.65;;;-1.90;99.90;;;;;;5092946;28;20074;-58
2021/12/27 04:02:59;;;;;;;110.47;49.28;;;-1.90;99.90;;;;;;5075681;28;20544;-58
2021/12/27 04:05:26;;;;;;;113.03;52.95;;;-1.90;99.90;;;;;;5093794;28;20020;-57
2021/12/27 04:08:00;;;;;;;117.00;51.90;;;-1.90;99.90;;;;;;5093792;28;20081;-56
2021/12/27 04:10:26;;;;;;;116.57;51.97;;;-1.90;99.90;;;;;;5093697;28;20049;-56
2021/12/27 04:12:52;;;;;;;121.65;56.05;;;-2.00;99.90;;;;;;5093907;28;20462;-57
2021/12/27 04:15:17;;;;;;;119.05;52.92;;;-1.90;99.90;;;;;;5093717;28;20046;-56
2021/12/27 04:17:43;;;;;;;114.47;53.38;;;-2.00;99.90;;;;;;5093649;28;20035;-56
2021/12/27 04:20:09;;;;;;;120.93;53.85;;;-2.00;99.90;;;;;;5093495;28;20027;-57
2021/12/27 04:22:35;;;;;;;128.63;53.67;;;-2.00;99.90;;;;;;5093643;28;20153;-57
2021/12/27 04:25:01;;;;;;;131.02;57.88;;;-1.90;99.90;;;;;;5093457;28;20090;-58
2021/12/27 04:27:27;;;;;;;122.68;52.40;;;-1.90;99.90;;;;;;5093219;28;20055;-58
2021/12/27 04:29:52;;;;;;;119.50;51.75;;;-2.00;99.90;;;;;;5093261;28;20517;-58
2021/12/27 04:32:18;;;;;;;132.70;55.45;;;-2.00;99.90;;;;;;5093460;28;20115;-58
2021/12/27 04:34:44;;;;;;;120.63;55.40;;;-2.00;99.90;;;;;;5093473;28;20417;-57
2021/12/27 04:37:10;;;;;;;122.72;53.53;;;-2.00;99.90;;;;;;5093451;28;20080;-55
2021/12/27 04:39:36;;;;;;;119.03;53.13;;;-2.00;99.90;;;;;;5093300;28;20027;-57
2021/12/27 04:42:02;;;;;;;126.38;54.85;;;-2.00;99.90;;;;;;5092997;28;20474;-58
2021/12/27 04:44:28;;;;;;;123.68;54.35;;;-2.00;99.90;;;;;;5093169;28;20028;-57
2021/12/27 04:46:54;;;;;;;137.00;55.50;;;-2.00;99.90;;;;;;5075184;28;20069;-57
2021/12/27 04:49:20;;;;;;;132.13;56.58;;;-2.10;99.90;;;;;;5092919;28;20020;-57
2021/12/27 04:51:45;;;;;;;115.38;54.80;;;-2.10;99.90;;;;;;5092986;28;20020;-58
2021/12/27 04:54:11;;;;;;;131.73;55.83;;;-2.00;99.90;;;;;;5092783;28;20119;-58
2021/12/27 04:56:37;;;;;;;119.75;53.40;;;-2.10;99.90;;;;;;5092896;28;20101;-55
2021/12/27 04:59:03;;;;;;;140.18;57.00;;;-2.00;99.90;;;;;;5092930;28;20066;-55
2021/12/27 05:01:28;;;;;;;127.38;53.85;;;-2.00;99.90;;;;;;5092831;28;20028;-58
2021/12/27 05:03:54;;;;;;;131.07;55.05;;;-2.00;99.90;;;;;;5092905;28;20032;-56
2021/12/27 05:06:20;;;;;;;125.80;56.15;;;-2.10;99.90;;;;;;5074595;28;20028;-57
2021/12/27 05:08:48;;;;;;;134.65;56.38;;;-2.10;99.90;;;;;;5092860;28;20024;-58
2021/12/27 05:11:14;;;;;;;137.32;59.45;;;-2.10;99.90;;;;;;5092527;28;20035;-56
2021/12/27 05:13:40;;;;;;;131.07;56.28;;;-2.10;99.90;;;;;;5092634;28;20463;-57
2021/12/27 05:16:06;;;;;;;122.32;53.30;;;-2.10;99.90;;;;;;5092793;28;20020;-58
2021/12/27 05:18:38;;;;;;;151.90;58.42;;;-2.10;99.90;;;;;;5092584;28;20514;-57
2021/12/27 05:21:04;;;;;;;146.00;56.30;;;-2.10;99.90;;;;;;5092152;28;20034;-56
2021/12/27 05:23:31;;;;;;;132.77;57.40;;;-2.10;99.90;;;;;;5091647;28;20024;-56
2021/12/27 05:25:57;;;;;;;125.35;58.55;;;-2.10;99.90;;;;;;5092253;28;20460;-57
2021/12/27 05:28:23;;;;;;;137.23;59.00;;;-2.10;99.90;;;;;;5092291;28;20093;-56
2021/12/27 05:30:51;;;;;;;136.25;56.78;;;-2.10;99.90;;;;;;5092412;28;20032;-58
2021/12/27 05:33:18;;;;;;;148.93;59.05;;;-2.10;99.90;;;;;;5092184;28;20073;-56
2021/12/27 05:35:44;;;;;;;137.95;56.95;;;-2.10;99.90;;;;;;5091606;28;20472;-58
2021/12/27 05:38:09;;;;;;;139.93;58.30;;;-2.00;99.90;;;;;;5073787;28;20115;-57
2021/12/27 05:40:35;;;;;;;132.02;54.88;;;-2.00;99.90;;;;;;5091967;28;20026;-57
2021/12/27 05:43:01;;;;;;;134.07;57.92;;;-2.00;99.90;;;;;;5092389;28;20060;-57
2021/12/27 05:45:27;;;;;;;124.95;56.15;;;-1.90;99.90;;;;;;5092219;28;20077;-56
2021/12/27 05:47:53;;;;;;;131.50;55.60;;;-1.90;99.90;;;;;;5091591;28;20028;-58
2021/12/27 05:50:19;;;;;;;131.57;57.40;;;-2.00;99.90;;;;;;5073323;28;20046;-58
2021/12/27 05:52:45;;;;;;;130.55;54.65;;;-1.90;99.90;;;;;;5091562;28;20024;-57
2021/12/27 05:55:11;;;;;;;115.53;50.75;;;-2.00;99.90;;;;;;5091352;28;20036;-58
2021/12/27 05:57:38;;;;;;;116.13;54.92;;;-2.00;99.90;;;;;;5091445;28;20035;-57
2021/12/27 06:00:06;;;;;;;128.15;55.45;;;-2.00;99.90;;;;;;5091905;28;20024;-56
2021/12/27 06:02:32;;;;;;;120.97;53.28;;;-2.00;99.90;;;;;;5091841;28;20028;-58
2021/12/27 06:04:57;;;;;;;125.00;56.15;;;-2.00;99.90;;;;;;5091909;28;20486;-57
2021/12/27 06:07:23;;;;;;;140.68;58.00;;;-1.90;99.90;;;;;;5073206;28;20363;-58
2021/12/27 06:09:49;;;;;;;126.65;57.67;;;-1.90;99.90;;;;;;5091968;28;20080;-57
2021/12/27 06:12:14;;;;;;;130.82;53.75;;;-2.00;99.90;;;;;;5091398;28;20026;-57
2021/12/27 06:14:40;;;;;;;123.93;52.78;;;-2.00;99.90;;;;;;5091467;28;20027;-56
2021/12/27 06:17:06;;;;;;;137.20;54.78;;;-2.00;99.90;;;;;;5091638;28;20076;-58
2021/12/27 06:19:32;;;;;;;128.93;56.53;;;-2.00;99.90;;;;;;5091336;28;20039;-57
2021/12/27 06:21:58;;;;;;;139.25;57.67;;;-2.00;99.90;;;;;;5090596;28;20020;-56
2021/12/27 06:24:23;;;;;;;126.80;56.47;;;-2.00;99.90;;;;;;5090945;28;20032;-57
2021/12/27 06:26:49;;;;;;;138.57;61.40;;;-2.00;99.90;;;;;;5091529;28;20467;-57
2021/12/27 06:29:15;;;;;;;138.32;56.25;;;-2.00;99.90;;;;;;5091403;28;20108;-56
2021/12/27 06:31:41;;;;;;;122.43;57.55;;;-2.10;99.90;;;;;;5091159;28;20035;-56
2021/12/27 06:34:07;;;;;;;138.32;58.30;;;-2.10;99.90;;;;;;5090812;28;20103;-57
2021/12/27 06:36:33;;;;;;;141.30;60.60;;;-2.10;99.90;;;;;;5090407;28;20039;-58
2021/12/27 06:39:00;;;;;;;146.23;59.20;;;-2.00;99.90;;;;;;5091335;28;20036;-57
2021/12/27 06:41:25;;;;;;;141.18;55.00;;;-2.00;99.90;;;;;;5090726;28;20115;-56
2021/12/27 06:43:52;;;;;;;154.05;65.13;;;-2.00;99.90;;;;;;5091023;28;20110;-58
2021/12/27 06:46:18;;;;;;;171.93;66.20;;;-2.10;99.90;;;;;;5090707;28;20523;-55
2021/12/27 06:48:44;;;;;;;252.52;98.25;;;-2.00;99.90;;;;;;5090931;28;20056;-57
2021/12/27 06:51:09;;;;;;;255.00;97.65;;;-1.90;99.90;;;;;;5090872;28;20109;-56
2021/12/27 06:53:35;;;;;;;272.00;101.85;;;-1.90;99.90;;;;;;5089864;28;20394;-57
2021/12/27 06:56:02;;;;;;;189.48;76.10;;;-1.90;99.90;;;;;;5090634;28;20052;-56
2021/12/27 06:58:28;;;;;;;142.95;60.17;;;-1.90;99.90;;;;;;5072726;28;20035;-58
2021/12/27 07:00:54;;;;;;;175.15;75.47;;;-2.00;99.90;;;;;;5090864;28;20103;-56
2021/12/27 07:03:20;;;;;;;145.48;62.55;;;-1.90;99.90;;;;;;5090180;28;20118;-56
2021/12/27 07:05:45;;;;;;;145.90;60.00;;;-2.00;99.90;;;;;;5091012;28;20110;-57
2021/12/27 07:08:11;;;;;;;143.15;58.90;;;-2.10;99.90;;;;;;5090748;28;20028;-58
2021/12/27 07:10:37;;;;;;;153.95;66.75;;;-2.00;99.90;;;;;;5090871;28;20518;-57
2021/12/27 07:13:04;;;;;;;156.27;59.40;;;-2.00;99.90;;;;;;5090907;28;20055;-57
2021/12/27 07:15:30;;;;;;;150.90;62.63;;;-2.00;99.90;;;;;;5090674;28;20356;-58
2021/12/27 07:17:57;;;;;;;154.93;62.83;;;-1.90;99.90;;;;;;5090498;28;20017;-56
2021/12/27 07:20:23;;;;;;;153.13;58.55;;;-1.90;99.90;;;;;;5090580;28;20490;-57
2021/12/27 07:22:49;;;;;;;134.70;55.90;;;-2.00;99.90;;;;;;5091049;28;20103;-56
2021/12/27 07:25:15;;;;;;;150.65;59.97;;;-2.00;99.90;;;;;;5090610;28;20025;-58
2021/12/27 07:27:41;;;;;;;142.20;56.95;;;-2.10;99.90;;;;;;5090499;28;20031;-58
2021/12/27 07:30:10;;;;;;;140.80;54.92;;;-2.00;99.90;;;;;;5090633;28;20019;-57
2021/12/27 07:32:36;;;;;;;126.00;54.40;;;-1.90;99.90;;;;;;5090320;28;20391;-55
2021/12/27 07:35:03;;;;;;;120.90;55.97;;;-1.90;99.90;;;;;;5094432;28;20016;-57
2021/12/27 07:37:29;;;;;;;136.90;57.95;;;-1.90;99.90;;;;;;5094254;28;20040;-58
2021/12/27 07:39:54;;;;;;;128.15;54.13;;;-1.90;99.90;;;;;;5094179;28;20024;-57
2021/12/27 07:42:20;;;;;;;125.32;53.92;;;-1.90;99.90;;;;;;5094012;28;20055;-57
2021/12/27 07:44:46;;;;;;;127.72;51.83;;;-1.90;99.90;;;;;;5094138;28;20032;-58
2021/12/27 07:47:12;;;;;;;124.45;51.60;;;-1.90;99.90;;;;;;5093845;28;20020;-57
2021/12/27 07:49:39;;;;;;;134.38;51.95;;;-1.80;99.90;;;;;;5094126;28;20073;-58
2021/12/27 07:52:06;;;;;;;125.68;53.65;;;-1.80;99.90;;;;;;5094289;28;20481;-58
2021/12/27 07:54:32;;;;;;;127.10;52.92;;;-1.80;99.90;;;;;;5093798;28;20048;-58
2021/12/27 07:56:57;;;;;;;124.15;54.40;;;-1.80;99.90;;;;;;5093889;28;20099;-56
2021/12/27 07:59:23;;;;;;;129.40;55.60;;;-1.70;99.90;;;;;;5093864;28;20473;-58
2021/12/27 08:01:49;;;;;;;165.05;63.78;;;-1.60;99.90;;;;;;5093711;28;20047;-56
2021/12/27 08:04:14;;;;;;;268.17;90.13;;;-1.60;99.90;;;;;;5093842;28;20020;-57
2021/12/27 08:06:40;;;;;;;211.20;98.07;;;-1.60;99.90;;;;;;5093732;28;20032;-56
2021/12/27 08:09:07;;;;;;;108.35;50.58;;;-1.50;99.90;;;;;;5093508;28;20039;-57
2021/12/27 08:11:32;;;;;;;116.45;50.17;;;-1.50;99.90;;;;;;5093844;28;20102;-58
2021/12/27 08:13:58;;;;;;;114.88;48.80;;;-1.50;99.90;;;;;;5093940;28;20111;-56
2021/12/27 08:16:24;;;;;;;118.00;51.85;;;-1.30;99.90;;;;;;5093460;28;20031;-56
2021/12/27 08:18:54;;;;;;;118.57;50.30;;;-1.40;99.90;;;;;;5093865;28;20024;-56
2021/12/27 08:21:21;;;;;;;123.63;50.42;;;-1.30;99.90;;;;;;5093587;28;20402;-57
2021/12/27 08:23:47;;;;;;;119.10;51.22;;;-1.30;99.90;;;;;;5092818;28;20028;-56
2021/12/27 08:26:13;;;;;;;115.72;48.55;;;-1.20;99.90;;;;;;5093785;28;20380;-56
2021/12/27 08:28:40;;;;;;;115.25;49.28;;;-1.20;99.90;;;;;;5093424;28;20032;-57
2021/12/27 08:31:06;;;;;;;126.47;49.88;;;-1.30;99.90;;;;;;5075370;28;20028;-57
2021/12/27 08:33:32;;;;;;;120.43;48.42;;;-1.30;99.90;;;;;;5093535;28;20407;-56
2021/12/27 08:35:57;;;;;;;125.57;51.70;;;-1.30;99.90;;;;;;5093570;28;20103;-58
2021/12/27 08:38:23;;;;;;;248.30;97.20;;;-1.20;99.90;;;;;;5093141;28;20781;-57
2021/12/27 08:40:48;;;;;;;144.25;64.22;;;-1.20;99.90;;;;;;5093671;28;20341;-57
2021/12/27 08:43:14;;;;;;;122.80;50.22;;;-1.20;99.90;;;;;;5093535;28;20044;-57
2021/12/27 08:45:40;;;;;;;122.65;49.88;;;-1.20;99.90;;;;;;5092861;28;20111;-57
2021/12/27 08:48:06;;;;;;;109.90;47.78;;;-1.10;99.90;;;;;;5075277;28;20085;-57
2021/12/27 08:50:31;;;;;;;124.85;49.30;;;-1.00;99.90;;;;;;5093399;28;20040;-58
2021/12/27 08:52:57;;;;;;;114.35;47.42;;;-1.00;99.90;;;;;;5075094;28;20024;-56
2021/12/27 08:55:23;;;;;;;117.88;49.47;;;-1.00;99.90;;;;;;5093038;28;20078;-60
2021/12/27 08:57:49;;;;;;;118.05;49.95;;;-0.90;99.90;;;;;;5075131;28;20043;-57
2021/12/27 09:00:16;;;;;;;144.63;48.72;;;-1.00;99.90;;;;;;5093201;28;20032;-56
2021/12/27 09:02:46;;;;;;;117.32;50.40;;;-1.00;99.90;;;;;;5093318;28;20046;-59
2021/12/27 09:05:12;;;;;;;124.00;50.35;;;-1.00;99.90;;;;;;5093159;28;20383;-59
2021/12/27 09:07:38;;;;;;;116.38;48.13;;;-1.00;99.90;;;;;;5092968;28;20468;-58
2021/12/27 09:10:05;;;;;;;121.70;51.92;;;-1.00;99.90;;;;;;5092989;28;20030;-59
2021/12/27 09:12:31;;;;;;;111.50;48.20;;;-1.00;99.90;;;;;;5092821;28;20024;-59
2021/12/27 09:14:56;;;;;;;121.35;48.58;;;-0.90;99.90;;;;;;5092892;28;20040;-59
2021/12/27 09:17:22;;;;;;;108.35;47.20;;;-1.00;99.90;;;;;;5092982;28;20027;-56
2021/12/27 09:19:48;;;;;;;118.47;47.17;;;-0.80;99.90;;;;;;5092956;28;20426;-57
2021/12/27 09:22:15;;;;;;;124.90;46.05;;;-0.90;99.90;;;;;;5092662;28;20093;-57
2021/12/27 09:24:41;;;;;;;147.05;47.83;;;-0.80;99.90;;;;;;5092717;28;20343;-56
2021/12/27 09:27:07;;;;;;;147.32;49.70;;;-0.90;99.90;;;;;;5074695;28;20035;-56
2021/12/27 09:29:33;;;;;;;132.70;47.63;;;-0.80;99.90;;;;;;5092447;28;20024;-56
2021/12/27 09:31:59;;;;;;;159.73;54.60;;;-0.90;99.90;;;;;;5092745;28;20059;-57
2021/12/27 09:34:24;;;;;;;352.25;154.82;;;-0.80;99.90;;;;;;5092416;28;20031;-56
2021/12/27 09:36:50;;;;;;;119.47;54.67;;;-0.70;99.90;;;;;;5092537;28;20028;-56
2021/12/27 09:39:16;;;;;;;132.00;69.70;;;-0.60;99.90;;;;;;5074108;28;20038;-57
2021/12/27 09:41:42;;;;;;;123.38;51.13;;;-0.50;99.90;;;;;;5092575;28;20138;-57
2021/12/27 09:44:08;;;;;;;117.78;50.38;;;-0.40;99.90;;;;;;5092474;28;20123;-57
2021/12/27 09:46:34;;;;;;;107.10;50.03;;;-0.50;99.90;;;;;;5092361;28;20028;-57
2021/12/27 09:49:03;;;;;;;113.72;50.50;;;-0.50;99.90;;;;;;5092280;28;20085;-58
2021/12/27 09:51:30;;;;;;;156.70;43.67;;;-0.50;99.90;;;;;;5072813;28;20363;-57
2021/12/27 09:53:56;;;;;;;111.10;46.03;;;-0.50;99.90;;;;;;5092011;28;20111;-56
2021/12/27 09:56:22;;;;;;;124.80;47.58;;;-0.60;99.90;;;;;;5091091;28;20509;-58
2021/12/27 09:58:48;;;;;;;132.40;49.25;;;-0.60;99.90;;;;;;5091061;28;20052;-56
2021/12/27 10:01:14;;;;;;;175.82;62.50;;;-0.70;99.90;;;;;;5091677;28;20107;-58
2021/12/27 10:03:57;;;;;;;142.18;51.38;;;-0.70;99.90;;;;;;5091995;28;20043;-56
2021/12/27 10:06:25;;;;;;;201.13;57.33;;;-0.80;99.90;;;;;;5091009;28;20023;-57
2021/12/27 10:08:54;;;;;;;139.45;48.83;;;-1.00;99.90;;;;;;5091523;28;20040;-57
2021/12/27 10:11:24;;;;;;;114.47;47.60;;;-0.90;99.90;;;;;;5091239;28;20028;-57
2021/12/27 10:14:02;;;;;;;116.28;46.17;;;-0.60;99.90;;;;;;5091725;28;20055;-57
2021/12/27 10:16:29;;;;;;;145.80;46.47;;;-0.70;99.90;;;;;;5091460;28;20041;-57
2021/12/27 10:18:57;;;;;;;203.18;48.95;;;-0.70;99.90;;;;;;5091723;28;20024;-57
2021/12/27 10:21:24;;;;;;;129.98;48.80;;;-0.80;99.90;;;;;;5091382;28;20051;-55
2021/12/27 10:24:04;;;;;;;168.55;51.72;;;-0.80;99.90;;;;;;5091531;28;20016;-56
2021/12/27 10:26:32;;;;;;;156.05;51.42;;;-0.80;99.90;;;;;;5091373;28;20035;-58
2021/12/27 10:29:13;;;;;;;209.15;54.03;;;-0.80;99.90;;;;;;5091612;28;20031;-57
2021/12/27 10:32:18;;;;;;;126.95;48.22;;;-0.80;99.90;;;;;;5091607;28;20020;-57
2021/12/27 10:34:52;;;;;;;116.82;47.83;;;-0.70;99.90;;;;;;5076963;28;20384;-58
2021/12/27 10:37:30;;;;;;;143.55;52.88;;;-0.50;99.90;;;;;;5091428;28;20115;-58
2021/12/27 10:40:14;;;;;;;128.77;45.00;;;-0.60;99.90;;;;;;5073531;28;20028;-56
2021/12/27 10:42:46;;;;;;;160.25;48.35;;;-0.30;99.90;;;;;;5091024;28;20035;-57
2021/12/27 10:45:19;;;;;;;147.40;48.72;;;-0.30;99.90;;;;;;5091388;28;20088;-58
2021/12/27 10:47:48;;;;;;;141.93;49.35;;;-0.30;99.90;;;;;;5091188;28;20158;-57
2021/12/27 10:50:15;;;;;;;130.60;46.28;;;-0.20;99.90;;;;;;5090815;28;20020;-58
2021/12/27 10:52:43;;;;;;;191.18;43.30;;;-0.20;99.90;;;;;;5091047;28;20530;-58
2021/12/27 10:55:09;;;;;;;146.02;43.33;;;-0.30;99.90;;;;;;5091081;28;20044;-57
2021/12/27 10:57:36;;;;;;;183.10;45.05;;;-0.30;99.90;;;;;;5091030;28;20020;-57
2021/12/27 11:00:22;;;;;;;156.60;43.45;;;-0.30;99.90;;;;;;5091227;28;20546;-58
2021/12/27 11:02:48;;;;;;;152.63;44.97;;;-0.30;99.90;;;;;;5091398;28;20170;-56
2021/12/27 11:05:16;;;;;;;138.07;46.75;;;-0.20;99.90;;;;;;5090699;28;20515;-56
2021/12/27 11:07:43;;;;;;;121.82;45.13;;;-0.30;99.90;;;;;;5090856;28;20031;-56
2021/12/27 11:10:09;;;;;;;132.68;43.63;;;-0.20;99.90;;;;;;5095252;28;20424;-56
2021/12/27 11:12:34;;;;;;;219.15;45.88;;;-0.30;99.90;;;;;;5095036;28;20394;-56
2021/12/27 11:15:00;;;;;;;111.80;44.88;;;-0.30;99.90;;;;;;5094635;28;20035;-56
2021/12/27 11:17:26;;;;;;;186.95;46.30;;;-0.20;99.90;;;;;;5093211;28;20117;-56
2021/12/27 11:19:51;;;;;;;219.77;45.20;;;-0.30;99.90;;;;;;5093150;28;20020;-57
2021/12/27 11:22:17;;;;;;;124.43;50.33;;;-0.30;99.90;;;;;;5075708;28;20028;-56
2021/12/27 11:24:44;;;;;;;161.65;48.13;;;-0.30;99.90;;;;;;5094042;28;20479;-55
2021/12/27 11:27:12;;;;;;;243.05;56.13;;;-0.40;99.90;;;;;;5074760;28;20031;-56
2021/12/27 11:29:38;;;;;;;228.18;54.60;;;-0.50;99.90;;;;;;5093702;28;20035;-57
2021/12/27 11:32:16;;;;;;;177.43;53.90;;;-0.50;99.90;;;;;;5093900;28;20024;-56
2021/12/27 11:34:54;;;;;;;152.35;52.15;;;-0.50;99.90;;;;;;5093254;28;20658;-54
2021/12/27 11:37:20;;;;;;;143.75;50.20;;;-0.50;99.90;;;;;;5093107;28;20028;-55
2021/12/27 11:39:46;;;;;;;213.82;45.33;;;-0.40;99.90;;;;;;5099376;28;20043;-57
2021/12/27 11:42:17;;;;;;;184.30;46.90;;;-0.40;99.90;;;;;;5101307;28;20046;-58
2021/12/27 11:44:53;;;;;;;189.38;48.15;;;-0.50;99.90;;;;;;5099869;28;20034;-57
2021/12/27 11:47:29;;;;;;;223.95;50.15;;;-0.50;99.90;;;;;;5081556;28;20030;-56
2021/12/27 11:50:00;;;;;;;151.65;48.33;;;-0.40;99.90;;;;;;5084241;28;20036;-57
2021/12/27 11:52:31;;;;;;;231.48;49.95;;;-0.40;99.90;;;;;;5101876;28;20024;-57
2021/12/27 11:55:14;;;;;;;106.68;44.20;;;-0.40;99.90;;;;;;5101525;28;20399;-56
2021/12/27 11:57:53;;;;;;;253.63;50.20;;;-0.30;99.90;;;;;;5101508;28;20471;-55
2021/12/27 12:00:23;;;;;;;178.27;49.03;;;-0.30;99.90;;;;;;5099172;28;20052;-56
2021/12/27 12:03:01;;;;;;;195.15;45.80;;;-0.30;99.90;;;;;;5082028;28;20016;-57
2021/12/27 12:05:39;;;;;;;213.77;51.08;;;-0.40;99.90;;;;;;5082999;28;20032;-56
2021/12/27 12:08:06;;;;;;;161.98;47.47;;;-0.40;99.90;;;;;;5101629;28;20237;-57
2021/12/27 12:10:33;;;;;;;102.00;45.67;;;-0.40;99.90;;;;;;5082783;28;20115;-56
2021/12/27 12:13:24;;;;;;;229.95;46.22;;;-0.30;99.90;;;;;;5080852;28;20441;-55
2021/12/27 12:15:57;;;;;;;149.75;43.38;;;-0.40;99.90;;;;;;5081988;28;20107;-56
2021/12/27 12:18:23;;;;;;;178.45;45.55;;;-0.50;99.90;;;;;;5081400;28;20075;-56
2021/12/27 12:20:48;;;;;;;112.88;43.97;;;-0.40;99.90;;;;;;5064891;28;20566;-56
2021/12/27 12:23:14;;;;;;;117.82;41.08;;;-0.30;99.90;;;;;;5080888;28;20032;-57